sensor_id;sensor_type;location;lat;lon;timestamp;pressure;altitude;pressure_sealevel;temperature;humidity
73455;BME280;61690;51.824;6.306;2023-02-22T00:00:28;101439.16;;;18.23;47.34
73455;BME280;61690;51.824;6.306;2023-02-22T00:03:29;101432.22;;;18.22;47.43
73455;BME280;61690;51.824;6.306;2023-02-22T00:05:59;101432.53;;;18.16;47.66
73455;BME280;61690;51.824;6.306;2023-02-22T00:08:28;101434.25;;;18.17;47.61
73455;BME280;61690;51.824;6.306;2023-02-22T00:10:55;101435.09;;;18.17;47.31
73455;BME280;61690;51.824;6.306;2023-02-22T00:13:20;101440.34;;;18.17;47.52
73455;BME280;61690;51.824;6.306;2023-02-22T00:15:49;101436.88;;;18.17;47.69
73455;BME280;61690;51.824;6.306;2023-02-22T00:18:16;101433.31;;;18.18;47.43
73455;BME280;61690;51.824;6.306;2023-02-22T00:20:42;101432.66;;;18.14;47.36
73455;BME280;61690;51.824;6.306;2023-02-22T00:23:13;101436.97;;;18.15;47.49
73455;BME280;61690;51.824;6.306;2023-02-22T00:25:39;101430.00;;;18.14;47.81
73455;BME280;61690;51.824;6.306;2023-02-22T00:28:04;101430.84;;;18.15;47.65
73455;BME280;61690;51.824;6.306;2023-02-22T00:30:30;101428.50;;;18.10;47.27
73455;BME280;61690;51.824;6.306;2023-02-22T00:32:56;101430.00;;;18.14;47.62
73455;BME280;61690;51.824;6.306;2023-02-22T00:35:27;101430.09;;;18.13;47.56
73455;BME280;61690;51.824;6.306;2023-02-22T00:37:56;101432.81;;;18.11;47.37
73455;BME280;61690;51.824;6.306;2023-02-22T00:40:24;101433.81;;;18.09;47.80
73455;BME280;61690;51.824;6.306;2023-02-22T00:42:50;101433.06;;;18.07;47.54
73455;BME280;61690;51.824;6.306;2023-02-22T00:45:20;101436.47;;;18.09;47.64
73455;BME280;61690;51.824;6.306;2023-02-22T00:47:46;101437.31;;;18.09;47.83
73455;BME280;61690;51.824;6.306;2023-02-22T00:50:12;101436.19;;;18.13;47.19
73455;BME280;61690;51.824;6.306;2023-02-22T00:52:37;101437.31;;;18.09;47.35
73455;BME280;61690;51.824;6.306;2023-02-22T00:55:06;101432.19;;;18.06;47.75
73455;BME280;61690;51.824;6.306;2023-02-22T00:57:32;101424.47;;;18.03;47.51
73455;BME280;61690;51.824;6.306;2023-02-22T01:00:07;101429.47;;;18.08;47.70
73455;BME280;61690;51.824;6.306;2023-02-22T01:02:41;101429.41;;;18.09;47.82
73455;BME280;61690;51.824;6.306;2023-02-22T01:05:09;101430.50;;;18.05;47.94
73455;BME280;61690;51.824;6.306;2023-02-22T01:07:37;101431.34;;;18.06;47.72
73455;BME280;61690;51.824;6.306;2023-02-22T01:10:02;101423.44;;;18.06;47.60
73455;BME280;61690;51.824;6.306;2023-02-22T01:12:28;101420.81;;;18.06;47.47
73455;BME280;61690;51.824;6.306;2023-02-22T01:14:54;101415.75;;;18.02;47.32
73455;BME280;61690;51.824;6.306;2023-02-22T01:17:23;101419.22;;;18.03;47.47
73455;BME280;61690;51.824;6.306;2023-02-22T01:19:49;101419.22;;;18.03;47.31
73455;BME280;61690;51.824;6.306;2023-02-22T01:22:15;101414.72;;;18.05;47.42
73455;BME280;61690;51.824;6.306;2023-02-22T01:24:40;101407.06;;;18.00;47.56
73455;BME280;61690;51.824;6.306;2023-02-22T01:27:05;101408.59;;;18.05;47.25
73455;BME280;61690;51.824;6.306;2023-02-22T01:29:31;101405.38;;;17.99;47.87
73455;BME280;61690;51.824;6.306;2023-02-22T01:31:56;101405.22;;;18.02;47.39
73455;BME280;61690;51.824;6.306;2023-02-22T01:34:22;101400.03;;;18.01;47.27
73455;BME280;61690;51.824;6.306;2023-02-22T01:36:48;101398.31;;;18.00;47.79
73455;BME280;61690;51.824;6.306;2023-02-22T01:39:15;101394.16;;;17.96;47.48
73455;BME280;61690;51.824;6.306;2023-02-22T01:41:43;101392.28;;;17.98;47.61
73455;BME280;61690;51.824;6.306;2023-02-22T01:46:43;101387.88;;;17.98;47.49
73455;BME280;61690;51.824;6.306;2023-02-22T01:49:08;101375.66;;;17.97;47.89
73455;BME280;61690;51.824;6.306;2023-02-22T01:51:47;101375.72;;;17.96;47.56
73455;BME280;61690;51.824;6.306;2023-02-22T01:54:30;101367.00;;;17.95;47.72
73455;BME280;61690;51.824;6.306;2023-02-22T01:57:13;101373.25;;;17.93;47.83
73455;BME280;61690;51.824;6.306;2023-02-22T01:59:45;101372.94;;;17.99;47.67
73455;BME280;61690;51.824;6.306;2023-02-22T02:02:12;101369.63;;;17.95;47.48
73455;BME280;61690;51.824;6.306;2023-02-22T02:04:38;101367.84;;;17.96;47.79
73455;BME280;61690;51.824;6.306;2023-02-22T02:07:08;101360.22;;;17.91;47.41
73455;BME280;61690;51.824;6.306;2023-02-22T02:09:43;101361.03;;;17.92;47.84
73455;BME280;61690;51.824;6.306;2023-02-22T02:12:14;101355.84;;;17.90;47.73
73455;BME280;61690;51.824;6.306;2023-02-22T02:14:41;101356.81;;;17.89;47.66
73455;BME280;61690;51.824;6.306;2023-02-22T02:17:15;101353.38;;;17.87;48.00
73455;BME280;61690;51.824;6.306;2023-02-22T02:20:10;101355.69;;;17.93;47.73
73455;BME280;61690;51.824;6.306;2023-02-22T02:22:46;101351.53;;;17.89;47.65
73455;BME280;61690;51.824;6.306;2023-02-22T02:29:04;101355.94;;;17.89;47.89
73455;BME280;61690;51.824;6.306;2023-02-22T02:40:18;101333.19;;;17.88;47.44
73455;BME280;61690;51.824;6.306;2023-02-22T02:42:30;101330.66;;;17.86;47.65
73455;BME280;61690;51.824;6.306;2023-02-22T02:45:07;101334.19;;;17.85;47.59
73455;BME280;61690;51.824;6.306;2023-02-22T02:47:37;101330.50;;;17.89;47.40
73455;BME280;61690;51.824;6.306;2023-02-22T02:50:09;101324.53;;;17.86;47.63
73455;BME280;61690;51.824;6.306;2023-02-22T02:52:38;101314.69;;;17.89;47.71
73455;BME280;61690;51.824;6.306;2023-02-22T02:55:06;101315.63;;;17.88;47.59
73455;BME280;61690;51.824;6.306;2023-02-22T02:57:32;101312.16;;;17.88;47.30
73455;BME280;61690;51.824;6.306;2023-02-22T02:59:57;101308.56;;;17.89;47.78
73455;BME280;61690;51.824;6.306;2023-02-22T03:10:49;101292.41;;;17.79;48.01
73455;BME280;61690;51.824;6.306;2023-02-22T03:13:24;101294.88;;;17.82;47.56
73455;BME280;61690;51.824;6.306;2023-02-22T03:18:38;101295.88;;;17.79;47.73
73455;BME280;61690;51.824;6.306;2023-02-22T03:21:23;101287.91;;;17.81;47.61
73455;BME280;61690;51.824;6.306;2023-02-22T03:24:08;101291.56;;;17.78;47.91
73455;BME280;61690;51.824;6.306;2023-02-22T03:26:41;101289.84;;;17.77;47.67
73455;BME280;61690;51.824;6.306;2023-02-22T03:29:10;101288.88;;;17.80;47.96
73455;BME280;61690;51.824;6.306;2023-02-22T03:31:41;101289.78;;;17.79;47.57
73455;BME280;61690;51.824;6.306;2023-02-22T03:34:21;101293.94;;;17.83;47.84
73455;BME280;61690;51.824;6.306;2023-02-22T03:36:52;101298.50;;;17.79;47.66
73455;BME280;61690;51.824;6.306;2023-02-22T03:39:22;101294.03;;;17.81;47.49
73455;BME280;61690;51.824;6.306;2023-02-22T03:41:57;101291.66;;;17.77;47.73
73455;BME280;61690;51.824;6.306;2023-02-22T03:44:28;101296.16;;;17.75;47.73
73455;BME280;61690;51.824;6.306;2023-02-22T03:46:56;101289.22;;;17.74;47.84
73455;BME280;61690;51.824;6.306;2023-02-22T03:49:39;101282.25;;;17.73;47.52
73455;BME280;61690;51.824;6.306;2023-02-22T03:52:07;101285.78;;;17.72;48.05
73455;BME280;61690;51.824;6.306;2023-02-22T03:54:33;101291.91;;;17.72;47.67
73455;BME280;61690;51.824;6.306;2023-02-22T03:57:31;101291.50;;;17.80;47.62
73455;BME280;61690;51.824;6.306;2023-02-22T03:59:58;101296.69;;;17.81;47.70
73455;BME280;61690;51.824;6.306;2023-02-22T04:02:23;101289.53;;;17.83;47.18
73455;BME280;61690;51.824;6.306;2023-02-22T04:04:48;101290.41;;;17.84;47.17
73455;BME280;61690;51.824;6.306;2023-02-22T04:07:15;101292.09;;;17.85;47.52
73455;BME280;61690;51.824;6.306;2023-02-22T04:09:41;101283.28;;;17.86;47.39
73455;BME280;61690;51.824;6.306;2023-02-22T04:12:06;101281.41;;;17.88;47.37
73455;BME280;61690;51.824;6.306;2023-02-22T04:14:32;101283.53;;;17.97;47.35
73455;BME280;61690;51.824;6.306;2023-02-22T04:16:58;101278.50;;;18.09;46.66
73455;BME280;61690;51.824;6.306;2023-02-22T04:19:23;101286.53;;;18.21;46.67
73455;BME280;61690;51.824;6.306;2023-02-22T04:21:48;101283.13;;;18.35;46.61
73455;BME280;61690;51.824;6.306;2023-02-22T04:24:14;101280.41;;;18.51;45.98
73455;BME280;61690;51.824;6.306;2023-02-22T04:26:39;101273.94;;;18.57;46.18
73455;BME280;61690;51.824;6.306;2023-02-22T04:29:05;101267.38;;;18.64;45.88
73455;BME280;61690;51.824;6.306;2023-02-22T04:31:31;101268.13;;;18.66;45.81
73455;BME280;61690;51.824;6.306;2023-02-22T04:33:58;101261.81;;;18.69;45.79
73455;BME280;61690;51.824;6.306;2023-02-22T04:36:24;101255.16;;;18.77;45.94
73455;BME280;61690;51.824;6.306;2023-02-22T04:38:49;101254.06;;;18.82;45.49
73455;BME280;61690;51.824;6.306;2023-02-22T04:41:16;101251.97;;;18.87;45.56
73455;BME280;61690;51.824;6.306;2023-02-22T04:43:42;101247.28;;;18.92;45.19
73455;BME280;61690;51.824;6.306;2023-02-22T04:46:07;101245.59;;;18.91;45.46
73455;BME280;61690;51.824;6.306;2023-02-22T04:48:32;101247.09;;;18.95;45.61
73455;BME280;61690;51.824;6.306;2023-02-22T04:50:58;101232.97;;;18.96;45.43
73455;BME280;61690;51.824;6.306;2023-02-22T04:53:23;101241.16;;;19.06;45.37
73455;BME280;61690;51.824;6.306;2023-02-22T04:55:48;101232.41;;;19.05;45.38
73455;BME280;61690;51.824;6.306;2023-02-22T04:58:14;101237.75;;;19.04;45.69
73455;BME280;61690;51.824;6.306;2023-02-22T05:00:39;101232.56;;;19.02;45.65
73455;BME280;61690;51.824;6.306;2023-02-22T05:03:04;101235.13;;;19.04;45.62
73455;BME280;61690;51.824;6.306;2023-02-22T05:05:30;101234.38;;;19.02;45.48
73455;BME280;61690;51.824;6.306;2023-02-22T05:07:55;101232.78;;;18.99;45.53
73455;BME280;61690;51.824;6.306;2023-02-22T05:10:20;101226.56;;;19.00;45.88
73455;BME280;61690;51.824;6.306;2023-02-22T05:12:45;101227.13;;;19.05;45.63
73455;BME280;61690;51.824;6.306;2023-02-22T05:15:15;101218.91;;;19.10;45.60
73455;BME280;61690;51.824;6.306;2023-02-22T05:17:41;101218.66;;;19.14;45.50
73455;BME280;61690;51.824;6.306;2023-02-22T05:20:06;101219.22;;;19.19;45.52
73455;BME280;61690;51.824;6.306;2023-02-22T05:22:33;101220.72;;;19.24;45.21
73455;BME280;61690;51.824;6.306;2023-02-22T05:24:58;101212.59;;;19.27;45.18
73455;BME280;61690;51.824;6.306;2023-02-22T05:27:23;101218.94;;;19.51;45.89
73455;BME280;61690;51.824;6.306;2023-02-22T05:29:48;101217.75;;;19.70;45.10
73455;BME280;61690;51.824;6.306;2023-02-22T05:32:14;101217.72;;;19.84;45.41
73455;BME280;61690;51.824;6.306;2023-02-22T05:34:39;101210.34;;;19.89;45.74
73455;BME280;61690;51.824;6.306;2023-02-22T05:37:05;101201.59;;;19.89;45.75
73455;BME280;61690;51.824;6.306;2023-02-22T05:39:31;101209.84;;;19.97;46.45
73455;BME280;61690;51.824;6.306;2023-02-22T05:41:56;101209.00;;;19.96;46.95
73455;BME280;61690;51.824;6.306;2023-02-22T05:44:22;101194.44;;;20.04;47.19
73455;BME280;61690;51.824;6.306;2023-02-22T05:46:47;101196.78;;;20.08;46.81
73455;BME280;61690;51.824;6.306;2023-02-22T05:49:13;101187.66;;;20.00;46.31
73455;BME280;61690;51.824;6.306;2023-02-22T05:51:38;101180.09;;;20.21;46.11
73455;BME280;61690;51.824;6.306;2023-02-22T05:54:03;101179.56;;;20.28;46.21
73455;BME280;61690;51.824;6.306;2023-02-22T05:56:29;101178.72;;;20.28;46.83
73455;BME280;61690;51.824;6.306;2023-02-22T05:58:55;101169.44;;;20.22;46.80
73455;BME280;61690;51.824;6.306;2023-02-22T06:01:21;101179.25;;;20.20;47.25
73455;BME280;61690;51.824;6.306;2023-02-22T06:03:50;101178.41;;;20.20;47.46
73455;BME280;61690;51.824;6.306;2023-02-22T06:06:16;101177.56;;;20.19;47.16
73455;BME280;61690;51.824;6.306;2023-02-22T06:08:42;101171.66;;;20.15;47.02
73455;BME280;61690;51.824;6.306;2023-02-22T06:11:08;101176.63;;;20.20;47.03
73455;BME280;61690;51.824;6.306;2023-02-22T06:13:34;101169.75;;;20.30;46.88
73455;BME280;61690;51.824;6.306;2023-02-22T06:15:59;101167.66;;;20.35;46.81
73455;BME280;61690;51.824;6.306;2023-02-22T06:18:25;101163.81;;;20.27;47.07
73455;BME280;61690;51.824;6.306;2023-02-22T06:20:51;101178.63;;;20.16;47.46
73455;BME280;61690;51.824;6.306;2023-02-22T06:23:16;101178.50;;;20.05;47.44
73455;BME280;61690;51.824;6.306;2023-02-22T06:25:41;101179.00;;;19.97;47.68
73455;BME280;61690;51.824;6.306;2023-02-22T06:28:07;101174.88;;;19.93;48.10
73455;BME280;61690;51.824;6.306;2023-02-22T06:30:32;101175.06;;;19.90;48.25
73455;BME280;61690;51.824;6.306;2023-02-22T06:32:57;101181.50;;;19.86;48.44
73455;BME280;61690;51.824;6.306;2023-02-22T06:35:22;101172.56;;;19.89;48.14
73455;BME280;61690;51.824;6.306;2023-02-22T06:37:48;101171.81;;;19.87;48.04
73455;BME280;61690;51.824;6.306;2023-02-22T06:40:14;101178.88;;;19.86;48.15
73455;BME280;61690;51.824;6.306;2023-02-22T06:42:40;101179.09;;;19.83;48.65
73455;BME280;61690;51.824;6.306;2023-02-22T06:45:06;101179.16;;;17.50;44.93
73455;BME280;61690;51.824;6.306;2023-02-22T06:47:31;101187.78;;;16.20;48.90
73455;BME280;61690;51.824;6.306;2023-02-22T06:49:58;101186.13;;;17.51;47.14
73455;BME280;61690;51.824;6.306;2023-02-22T06:52:24;101183.66;;;18.25;45.71
73455;BME280;61690;51.824;6.306;2023-02-22T06:54:50;101173.81;;;18.71;46.07
73455;BME280;61690;51.824;6.306;2023-02-22T06:57:16;101182.69;;;18.70;47.42
73455;BME280;61690;51.824;6.306;2023-02-22T06:59:42;101174.91;;;18.83;47.47
73455;BME280;61690;51.824;6.306;2023-02-22T07:02:10;101180.81;;;19.01;46.19
73455;BME280;61690;51.824;6.306;2023-02-22T07:04:35;101181.81;;;19.13;46.55
73455;BME280;61690;51.824;6.306;2023-02-22T07:07:01;101184.53;;;19.26;46.79
73455;BME280;61690;51.824;6.306;2023-02-22T07:09:26;101179.31;;;19.38;46.62
73455;BME280;61690;51.824;6.306;2023-02-22T07:11:51;101178.03;;;19.58;46.22
73455;BME280;61690;51.824;6.306;2023-02-22T07:14:17;101161.78;;;19.79;46.31
73455;BME280;61690;51.824;6.306;2023-02-22T07:16:42;101152.59;;;19.97;46.30
73455;BME280;61690;51.824;6.306;2023-02-22T07:19:07;101142.78;;;20.00;46.25
73455;BME280;61690;51.824;6.306;2023-02-22T07:21:33;101142.19;;;20.22;46.03
73455;BME280;61690;51.824;6.306;2023-02-22T07:23:58;101147.88;;;20.41;45.85
73455;BME280;61690;51.824;6.306;2023-02-22T07:26:24;101147.44;;;20.47;46.02
73455;BME280;61690;51.824;6.306;2023-02-22T07:28:50;101145.84;;;20.57;46.24
73455;BME280;61690;51.824;6.306;2023-02-22T07:31:15;101141.22;;;20.61;46.23
73455;BME280;61690;51.824;6.306;2023-02-22T07:33:41;101146.31;;;20.64;46.10
73455;BME280;61690;51.824;6.306;2023-02-22T07:36:07;101162.91;;;20.66;45.91
73455;BME280;61690;51.824;6.306;2023-02-22T07:38:32;101167.25;;;20.67;46.75
73455;BME280;61690;51.824;6.306;2023-02-22T07:40:58;101155.06;;;20.65;46.40
73455;BME280;61690;51.824;6.306;2023-02-22T07:43:24;101159.72;;;20.61;46.59
73455;BME280;61690;51.824;6.306;2023-02-22T07:45:53;101155.19;;;20.63;46.79
73455;BME280;61690;51.824;6.306;2023-02-22T07:48:21;101160.56;;;20.49;46.65
73455;BME280;61690;51.824;6.306;2023-02-22T07:50:47;101152.00;;;20.58;46.66
73455;BME280;61690;51.824;6.306;2023-02-22T07:53:27;101156.00;;;20.76;46.27
73455;BME280;61690;51.824;6.306;2023-02-22T07:55:57;101151.78;;;20.87;46.50
73455;BME280;61690;51.824;6.306;2023-02-22T07:58:23;101156.63;;;20.93;46.28
73455;BME280;61690;51.824;6.306;2023-02-22T08:00:49;101163.47;;;20.95;46.02
73455;BME280;61690;51.824;6.306;2023-02-22T08:03:16;101164.22;;;20.98;46.41
73455;BME280;61690;51.824;6.306;2023-02-22T08:05:46;101160.09;;;20.93;46.31
73455;BME280;61690;51.824;6.306;2023-02-22T08:08:11;101158.53;;;20.91;46.27
73455;BME280;61690;51.824;6.306;2023-02-22T08:10:38;101164.94;;;21.00;46.33
73455;BME280;61690;51.824;6.306;2023-02-22T08:13:04;101161.03;;;21.05;46.35
73455;BME280;61690;51.824;6.306;2023-02-22T08:15:32;101166.09;;;21.08;46.08
73455;BME280;61690;51.824;6.306;2023-02-22T08:18:00;101164.91;;;21.12;46.25
73455;BME280;61690;51.824;6.306;2023-02-22T08:20:26;101156.53;;;21.19;46.21
73455;BME280;61690;51.824;6.306;2023-02-22T08:22:52;101159.53;;;21.14;45.86
73455;BME280;61690;51.824;6.306;2023-02-22T08:25:19;101160.59;;;21.11;45.96
73455;BME280;61690;51.824;6.306;2023-02-22T08:27:45;101157.16;;;21.22;46.19
73455;BME280;61690;51.824;6.306;2023-02-22T08:30:21;101158.53;;;21.28;46.25
73455;BME280;61690;51.824;6.306;2023-02-22T08:32:47;101152.91;;;21.32;46.26
73455;BME280;61690;51.824;6.306;2023-02-22T08:35:14;101156.88;;;21.38;46.40
73455;BME280;61690;51.824;6.306;2023-02-22T08:37:42;101164.44;;;21.44;46.27
73455;BME280;61690;51.824;6.306;2023-02-22T08:40:08;101163.97;;;21.50;46.08
73455;BME280;61690;51.824;6.306;2023-02-22T08:42:33;101166.84;;;21.47;46.04
73455;BME280;61690;51.824;6.306;2023-02-22T08:44:59;101165.88;;;21.48;46.17
73455;BME280;61690;51.824;6.306;2023-02-22T08:47:24;101164.91;;;21.49;46.00
73455;BME280;61690;51.824;6.306;2023-02-22T08:49:50;101154.31;;;21.49;46.21
73455;BME280;61690;51.824;6.306;2023-02-22T08:52:15;101154.13;;;21.40;46.05
73455;BME280;61690;51.824;6.306;2023-02-22T08:54:40;101162.19;;;21.38;46.39
73455;BME280;61690;51.824;6.306;2023-02-22T08:57:06;101158.06;;;21.34;46.25
73455;BME280;61690;51.824;6.306;2023-02-22T08:59:31;101161.31;;;21.50;46.38
73455;BME280;61690;51.824;6.306;2023-02-22T09:01:56;101154.91;;;21.66;46.47
73455;BME280;61690;51.824;6.306;2023-02-22T09:04:21;101152.63;;;21.72;46.50
73455;BME280;61690;51.824;6.306;2023-02-22T09:06:47;101144.47;;;21.76;46.73
73455;BME280;61690;51.824;6.306;2023-02-22T09:09:16;101152.03;;;21.80;47.05
73455;BME280;61690;51.824;6.306;2023-02-22T09:11:43;101149.28;;;21.82;47.11
73455;BME280;61690;51.824;6.306;2023-02-22T09:14:08;101153.75;;;21.81;47.09
73455;BME280;61690;51.824;6.306;2023-02-22T09:16:33;101151.78;;;21.72;47.37
73455;BME280;61690;51.824;6.306;2023-02-22T09:19:02;101149.38;;;21.69;47.26
73455;BME280;61690;51.824;6.306;2023-02-22T09:21:27;101145.97;;;21.67;47.50
73455;BME280;61690;51.824;6.306;2023-02-22T09:23:53;101144.75;;;21.60;47.80
73455;BME280;61690;51.824;6.306;2023-02-22T09:26:18;101145.97;;;21.56;47.75
73455;BME280;61690;51.824;6.306;2023-02-22T09:28:44;101140.78;;;21.54;47.98
73455;BME280;61690;51.824;6.306;2023-02-22T09:31:09;101136.53;;;21.51;47.92
73455;BME280;61690;51.824;6.306;2023-02-22T09:33:34;101135.06;;;21.47;47.92
73455;BME280;61690;51.824;6.306;2023-02-22T09:36:00;101129.03;;;21.45;48.23
73455;BME280;61690;51.824;6.306;2023-02-22T09:38:26;101135.97;;;21.35;48.38
73455;BME280;61690;51.824;6.306;2023-02-22T09:41:23;101123.91;;;21.31;48.61
73455;BME280;61690;51.824;6.306;2023-02-22T09:44:15;101126.03;;;21.26;48.71
73455;BME280;61690;51.824;6.306;2023-02-22T09:46:44;101123.75;;;21.21;48.87
73455;BME280;61690;51.824;6.306;2023-02-22T09:49:19;101121.66;;;21.13;49.20
73455;BME280;61690;51.824;6.306;2023-02-22T09:56:56;101114.13;;;21.07;49.26
73455;BME280;61690;51.824;6.306;2023-02-22T09:59:29;101114.38;;;21.04;49.33
73455;BME280;61690;51.824;6.306;2023-02-22T10:02:12;101103.28;;;20.99;49.60
73455;BME280;61690;51.824;6.306;2023-02-22T10:04:48;101109.66;;;20.97;49.53
73455;BME280;61690;51.824;6.306;2023-02-22T10:07:22;101103.53;;;20.96;49.60
73455;BME280;61690;51.824;6.306;2023-02-22T10:09:51;101095.06;;;20.91;49.50
73455;BME280;61690;51.824;6.306;2023-02-22T10:15:05;101100.81;;;20.85;49.98
73455;BME280;61690;51.824;6.306;2023-02-22T10:20:19;101097.63;;;20.80;49.97
73455;BME280;61690;51.824;6.306;2023-02-22T10:25:40;101092.50;;;20.65;49.42
73455;BME280;61690;51.824;6.306;2023-02-22T10:28:19;101083.72;;;20.52;49.91
73455;BME280;61690;51.824;6.306;2023-02-22T10:30:57;101090.25;;;20.59;48.90
73455;BME280;61690;51.824;6.306;2023-02-22T10:33:40;101086.59;;;20.62;49.95
73455;BME280;61690;51.824;6.306;2023-02-22T10:36:20;101082.88;;;20.64;49.62
73455;BME280;61690;51.824;6.306;2023-02-22T10:39:03;101082.88;;;20.64;49.93
73455;BME280;61690;51.824;6.306;2023-02-22T10:41:37;101077.47;;;20.66;49.98
73455;BME280;61690;51.824;6.306;2023-02-22T10:44:06;101082.03;;;20.64;49.64
73455;BME280;61690;51.824;6.306;2023-02-22T10:46:33;101080.22;;;20.64;50.07
73455;BME280;61690;51.824;6.306;2023-02-22T10:49:03;101076.84;;;20.62;49.95
73455;BME280;61690;51.824;6.306;2023-02-22T10:51:31;101077.78;;;20.61;49.84
73455;BME280;61690;51.824;6.306;2023-02-22T10:54:05;101071.75;;;20.59;50.04
73455;BME280;61690;51.824;6.306;2023-02-22T10:56:57;101058.34;;;20.49;50.35
73455;BME280;61690;51.824;6.306;2023-02-22T10:59:51;101063.88;;;20.46;50.36
73455;BME280;61690;51.824;6.306;2023-02-22T11:02:23;101064.47;;;20.50;50.58
73455;BME280;61690;51.824;6.306;2023-02-22T11:04:53;101062.16;;;20.58;50.08
73455;BME280;61690;51.824;6.306;2023-02-22T11:10:00;101059.19;;;20.50;50.46
73455;BME280;61690;51.824;6.306;2023-02-22T11:12:38;101045.31;;;20.59;50.41
73455;BME280;61690;51.824;6.306;2023-02-22T11:17:41;101047.66;;;20.51;50.74
73455;BME280;61690;51.824;6.306;2023-02-22T11:20:23;101051.38;;;20.48;50.59
73455;BME280;61690;51.824;6.306;2023-02-22T11:22:54;101049.78;;;20.46;50.80
73455;BME280;61690;51.824;6.306;2023-02-22T11:25:24;101048.84;;;20.47;50.84
73455;BME280;61690;51.824;6.306;2023-02-22T11:27:51;101050.75;;;20.45;50.64
73455;BME280;61690;51.824;6.306;2023-02-22T11:35:53;101038.91;;;20.37;50.94
73455;BME280;61690;51.824;6.306;2023-02-22T11:38:30;101037.00;;;20.40;50.99
73455;BME280;61690;51.824;6.306;2023-02-22T11:41:31;101030.25;;;20.35;50.81
73455;BME280;61690;51.824;6.306;2023-02-22T11:44:22;101028.56;;;20.34;51.09
73455;BME280;61690;51.824;6.306;2023-02-22T11:46:48;101023.41;;;20.33;50.83
73455;BME280;61690;51.824;6.306;2023-02-22T11:49:13;101026.06;;;20.33;51.24
73455;BME280;61690;51.824;6.306;2023-02-22T11:51:54;101026.16;;;20.31;50.90
73455;BME280;61690;51.824;6.306;2023-02-22T11:57:10;101012.28;;;20.41;51.01
73455;BME280;61690;51.824;6.306;2023-02-22T12:00:21;101008.56;;;20.56;50.42
73455;BME280;61690;51.824;6.306;2023-02-22T12:14:23;101012.59;;;18.93;43.37
73455;BME280;61690;51.824;6.306;2023-02-22T12:17:02;101013.47;;;18.65;43.63
73455;BME280;61690;51.824;6.306;2023-02-22T12:19:34;101011.50;;;18.83;43.11
73455;BME280;61690;51.824;6.306;2023-02-22T12:22:06;101010.69;;;18.95;43.70
73455;BME280;61690;51.824;6.306;2023-02-22T12:24:39;101006.41;;;19.60;42.90
73455;BME280;61690;51.824;6.306;2023-02-22T12:27:18;101008.84;;;20.02;42.38
73455;BME280;61690;51.824;6.306;2023-02-22T12:29:54;101000.47;;;20.33;42.76
73455;BME280;61690;51.824;6.306;2023-02-22T12:32:39;101004.75;;;20.60;42.54
73455;BME280;61690;51.824;6.306;2023-02-22T12:35:19;100993.25;;;20.85;42.47
73455;BME280;61690;51.824;6.306;2023-02-22T12:40:32;100990.03;;;20.93;43.14
73455;BME280;61690;51.824;6.306;2023-02-22T12:43:05;100992.47;;;20.96;43.30
73455;BME280;61690;51.824;6.306;2023-02-22T12:45:47;100985.97;;;21.00;43.31
73455;BME280;61690;51.824;6.306;2023-02-22T12:48:43;100987.59;;;20.90;43.47
73455;BME280;61690;51.824;6.306;2023-02-22T12:51:30;100994.75;;;20.76;43.92
73455;BME280;61690;51.824;6.306;2023-02-22T12:54:52;100985.81;;;20.66;44.09
73455;BME280;61690;51.824;6.306;2023-02-22T12:57:37;100993.63;;;20.68;44.20
73455;BME280;61690;51.824;6.306;2023-02-22T13:00:23;100989.44;;;20.65;44.33
73455;BME280;61690;51.824;6.306;2023-02-22T13:05:43;100982.97;;;20.69;44.33
73455;BME280;61690;51.824;6.306;2023-02-22T13:24:54;100972.75;;;20.76;45.28
73455;BME280;61690;51.824;6.306;2023-02-22T13:27:29;100976.22;;;20.65;45.60
73455;BME280;61690;51.824;6.306;2023-02-22T13:29:59;100966.13;;;20.57;45.41
73455;BME280;61690;51.824;6.306;2023-02-22T13:32:35;100971.31;;;20.59;45.74
73455;BME280;61690;51.824;6.306;2023-02-22T13:40:47;100953.78;;;20.58;45.62
73455;BME280;61690;51.824;6.306;2023-02-22T13:46:09;100950.34;;;20.45;45.85
73455;BME280;61690;51.824;6.306;2023-02-22T13:51:49;100960.00;;;20.57;46.27
73455;BME280;61690;51.824;6.306;2023-02-22T13:54:45;100967.94;;;20.57;46.20
73455;BME280;61690;51.824;6.306;2023-02-22T13:57:37;100970.41;;;20.60;46.33
73455;BME280;61690;51.824;6.306;2023-02-22T14:10:55;100964.88;;;20.63;47.26
73455;BME280;61690;51.824;6.306;2023-02-22T14:13:31;100968.66;;;20.59;47.49
73455;BME280;61690;51.824;6.306;2023-02-22T14:21:10;100964.50;;;20.44;46.81
73455;BME280;61690;51.824;6.306;2023-02-22T14:23:37;100963.56;;;20.45;46.70
73455;BME280;61690;51.824;6.306;2023-02-22T14:26:25;100957.31;;;20.46;47.54
73455;BME280;61690;51.824;6.306;2023-02-22T14:31:25;100959.66;;;19.75;46.71
73455;BME280;61690;51.824;6.306;2023-02-22T14:37:02;100951.00;;;20.35;47.06
73455;BME280;61690;51.824;6.306;2023-02-22T14:39:35;100947.63;;;20.33;47.29
73455;BME280;61690;51.824;6.306;2023-02-22T14:42:27;100943.44;;;20.31;47.05
73455;BME280;61690;51.824;6.306;2023-02-22T14:47:55;100950.50;;;20.30;47.31
73455;BME280;61690;51.824;6.306;2023-02-22T14:50:51;100958.41;;;20.30;47.70
73455;BME280;61690;51.824;6.306;2023-02-22T14:53:25;100957.69;;;20.28;47.96
73455;BME280;61690;51.824;6.306;2023-02-22T14:55:59;100957.13;;;20.36;47.83
73455;BME280;61690;51.824;6.306;2023-02-22T14:58:40;100955.34;;;20.36;47.98
73455;BME280;61690;51.824;6.306;2023-02-22T15:01:48;100955.47;;;20.35;48.08
73455;BME280;61690;51.824;6.306;2023-02-22T15:04:28;100960.13;;;20.31;48.27
73455;BME280;61690;51.824;6.306;2023-02-22T15:06:57;100954.09;;;20.29;48.35
73455;BME280;61690;51.824;6.306;2023-02-22T15:09:30;100959.16;;;20.32;48.58